Estació municipal de Aiguafreda (Osona, P.N. del Montseny)

Consulta les dades en temps real de l'estació municipal de Aiguafreda





Hora UTC 09:30
Temperatura 18.8 ºC
Sòl 15 cm 23.7 ºC
Humitat 68.6 %
Pressió 1012.5 hPa
Pluja 0.0 mm
Velocitat vent 2.6 km/h
Direcció vent S
Radiació solar 768.9 W/m²

Dades diàries 2026-05-09



Hora UTC (hivern +1h; estiu +2h)
Temperatura (ºC) Humitat (%) Pressió (hPa) Velocitat vent (km/h) Precipitació (mm) Radiació solar (W/m²)
Hora UTC Aire Sòl 15 cm Humitat Pressió Vel. Dir. Vel. Max Dir. Intent. màx 5 min. Rad. Sol.
00:05 9.9 9.2 94.5 1014.9 0.0 NNE 0.0 W 0.0 2.0
00:10 10.0 9.2 94.4 1014.8 0.0 NNE 0.0 NE 0.0 2.5
00:15 10.0 9.4 94.2 1014.8 0.0 NNE 0.0 N 0.0 2.1
00:20 10.1 9.5 93.9 1014.7 0.0 NNE 0.0 NW 0.0 1.7
00:25 10.0 9.4 93.5 1014.7 0.0 NNE 0.0 NNW 0.0 1.5
00:30 10.1 9.4 93.4 1014.6 0.0 NNE 0.0 N 0.0 1.2
00:35 10.1 9.4 93.3 1014.6 0.5 NW 3.4 NW 0.0 0.6
00:40 10.2 9.5 93.1 1014.6 0.0 NNE 0.0 NNE 0.0 0.5
00:45 10.3 9.5 93.1 1014.6 0.0 NNE 0.0 N 0.0 0.6
00:50 10.3 9.6 92.9 1014.6 0.0 NNE 0.0 SW 0.0 0.9
00:55 10.4 9.7 92.7 1014.6 0.0 NNE 0.0 WNW 0.0 0.8
01:00 10.5 9.7 92.6 1014.5 0.3 N 6.1 NE 0.0 1.0
01:05 10.6 9.8 92.3 1014.5 0.9 NE 6.1 NNW 0.0 1.4
01:10 10.6 9.8 92.1 1014.5 0.0 SW 3.4 SW 0.0 1.2
01:15 10.6 9.9 91.9 1014.4 0.0 NNE 0.0 SW 0.0 0.3
01:20 10.7 10.0 91.9 1014.4 0.0 NNE 0.0 NW 0.0 0.3
01:25 10.8 10.0 91.9 1014.3 0.2 SSE 6.1 SSE 0.0 0.3
01:30 10.9 10.1 91.6 1014.3 1.6 S 6.1 SSE 0.0 0.2
01:35 10.9 10.1 91.3 1014.3 0.0 NNE 0.0 WNW 0.0 0.3
01:40 10.9 10.1 91.1 1014.3 0.0 NNE 0.0 SSW 0.0 0.2
01:45 11.0 10.2 91.0 1014.3 0.0 NNE 0.0 SW 0.0 0.3
01:50 11.0 10.2 90.9 1014.2 0.1 SE 3.4 SE 0.0 0.2
01:55 11.0 10.2 90.8 1014.1 0.4 NNW 6.1 NNW 0.0 0.3
02:00 11.0 10.2 90.7 1014.0 0.0 NNE 0.0 W 0.0 0.4
02:05 11.1 10.1 90.7 1013.9 0.3 SE 6.1 SE 0.0 0.7
02:10 11.1 9.9 90.6 1013.9 0.0 NNE 0.0 SSE 0.0 0.7
02:15 11.0 9.7 90.6 1013.9 0.5 NE 6.1 NNE 0.0 0.6
02:20 10.9 9.6 90.7 1013.7 0.4 NNE 6.1 NNW 0.0 0.3
02:25 10.9 9.3 90.8 1013.7 0.0 NNE 0.0 W 0.0 0.4
02:30 10.8 9.2 91.0 1013.6 0.5 SE 3.4 ESE 0.0 0.2
02:35 10.8 9.1 91.0 1013.7 0.0 NNE 0.0 SSE 0.0 0.2
02:40 10.7 8.9 91.2 1013.7 0.1 SSE 3.4 S 0.0 0.2
02:45 10.6 8.8 91.4 1013.7 0.0 NNE 0.0 SE 0.0 0.6
02:50 10.5 8.6 91.7 1013.7 0.0 NNE 0.0 SE 0.0 0.9
02:55 10.4 8.5 91.9 1013.6 0.0 NNE 0.0 SE 0.0 0.8
03:00 10.3 8.4 92.2 1013.6 0.0 NNE 0.0 SE 0.0 0.9
03:05 10.3 8.2 92.5 1013.6 0.0 NNE 0.0 SE 0.0 0.4
03:10 10.2 8.2 92.8 1013.6 0.0 NNW 3.4 NNW 0.0 0.9
03:15 10.3 8.3 93.2 1013.6 0.7 SSE 6.1 SSE 0.0 1.0
03:20 10.3 8.3 93.2 1013.7 0.2 SE 3.4 SE 0.0 1.4
03:25 10.3 8.4 93.2 1013.6 0.0 NNE 0.0 SSE 0.0 1.6
03:30 10.3 8.6 93.3 1013.7 0.0 NNE 0.0 ENE 0.0 1.7
03:35 10.4 8.9 93.4 1013.7 0.0 NNE 0.0 ENE 0.0 1.5
03:40 10.5 9.2 93.6 1013.7 0.0 NNE 0.0 ENE 0.0 1.4
03:45 10.6 9.4 93.5 1013.6 0.2 NNE 3.4 ENE 0.0 1.5
03:50 10.7 9.5 93.2 1013.6 0.2 SSE 3.4 SSE 0.0 0.7
03:55 10.8 9.6 92.9 1013.5 0.0 NNE 0.0 SE 0.0 0.9
04:00 10.8 9.7 92.7 1013.6 0.0 NNE 0.0 ESE 0.0 1.0
04:05 10.9 9.9 92.4 1013.6 0.0 NNE 0.0 SSE 0.0 1.7
04:10 11.0 10.0 92.1 1013.5 0.1 ENE 6.1 NE 0.0 1.4
04:15 11.0 10.0 91.9 1013.5 0.0 NNE 0.0 ENE 0.0 0.4
04:20 11.0 10.1 91.4 1013.5 0.0 NNE 0.0 WSW 0.0 0.3
04:25 11.0 10.2 91.2 1013.5 0.4 SSE 3.4 SE 0.0 0.7
04:30 11.1 10.2 91.1 1013.6 0.6 SE 6.1 E 0.0 0.6
04:35 11.1 10.3 90.9 1013.5 0.4 WNW 6.1 W 0.0 0.7
04:40 11.1 10.3 90.5 1013.4 1.0 WSW 6.1 WSW 0.0 1.0
04:45 11.1 10.2 90.4 1013.4 0.5 S 6.1 SSE 0.0 1.8
04:50 11.1 10.2 90.4 1013.4 2.0 SE 6.1 SSE 0.0 1.2
04:55 11.2 10.3 90.4 1013.5 0.3 NNW 3.4 NNE 0.0 2.7
05:00 11.2 10.4 90.3 1013.5 0.0 W 3.4 W 0.0 4.3
05:05 11.3 10.5 90.2 1013.5 0.0 NNE 0.0 WSW 0.0 7.8
05:10 11.3 10.5 90.0 1013.5 1.3 SE 3.4 SE 0.0 5.0
05:15 11.3 10.6 89.9 1013.6 0.6 SSE 6.1 S 0.0 8.0
05:20 11.3 10.7 89.9 1013.6 0.0 NNE 0.0 SE 0.0 6.7
05:25 11.4 10.8 89.9 1013.6 0.0 NNE 0.0 SE 0.0 8.9
05:30 11.4 10.9 89.8 1013.5 0.1 WSW 3.4 WSW 0.0 7.6
05:35 11.5 11.0 89.7 1013.4 0.1 SSE 3.4 SSE 0.0 13.4
05:40 11.5 11.1 89.5 1013.5 0.8 S 6.1 SW 0.0 6.2
05:45 11.6 11.2 89.3 1013.5 0.1 S 3.4 S 0.0 13.5
05:50 11.7 11.3 89.1 1013.4 1.1 E 6.1 NNE 0.0 18.3
05:55 11.8 11.5 89.0 1013.4 0.4 SE 3.4 ESE 0.0 23.4
06:00 11.9 11.6 88.9 1013.4 0.0 NNE 0.0 ESE 0.0 29.0
06:05 12.0 11.8 88.4 1013.5 0.4 SE 6.1 SE 0.0 55.5
06:10 12.1 11.9 88.0 1013.5 2.6 SE 6.1 SE 0.0 71.5
06:15 12.1 12.1 87.7 1013.5 0.5 SSE 3.4 SE 0.0 77.0
06:20 12.3 12.4 88.0 1013.4 0.7 E 6.1 SSE 0.0 87.2
06:25 12.6 12.7 87.7 1013.3 0.0 NNE 0.0 ENE 0.0 106.8
06:30 12.8 13.1 87.0 1013.3 0.0 NNE 0.0 NE 0.0 124.0
06:35 13.0 13.4 86.3 1013.3 0.0 NNE 0.0 SE 0.0 119.6
06:40 13.3 13.7 85.7 1013.3 0.0 NNE 0.0 ESE 0.0 129.8
06:45 13.5 14.0 85.1 1013.2 0.0 NNE 0.0 NNE 0.0 137.7
06:50 13.7 14.3 84.8 1013.1 0.0 NNE 0.0 SSW 0.0 163.5
06:55 13.9 14.4 83.8 1013.1 0.3 SSW 6.1 S 0.0 173.4
07:00 13.9 14.6 82.9 1013.1 2.4 SSE 8.8 SSE 0.0 186.3
07:05 14.1 14.9 82.4 1013.1 1.9 SSE 8.8 SW 0.0 194.6
07:10 14.3 15.3 81.6 1013.1 3.7 SW 8.8 WSW 0.0 179.9
07:15 14.3 15.5 80.7 1013.2 2.8 SW 6.1 SSW 0.0 202.3
07:20 14.4 15.6 80.0 1013.1 3.2 SSW 8.8 SW 0.0 197.8
07:25 14.4 15.8 79.6 1013.2 1.1 SE 6.1 SE 0.0 218.4
07:30 14.5 16.0 79.9 1013.1 2.1 ESE 6.1 NE 0.0 246.6
07:35 14.5 16.2 79.7 1013.0 1.3 NNW 6.1 NW 0.0 296.9
07:40 14.8 16.6 79.5 1012.8 2.5 NNE 8.8 NNE 0.0 322.6
07:45 15.0 17.0 78.4 1012.7 3.7 SE 8.8 SE 0.0 345.6
07:50 15.1 17.4 77.9 1012.7 3.9 SSE 8.8 SSE 0.0 343.5
07:55 15.2 17.8 77.6 1012.7 3.6 E 8.8 N 0.0 363.7
08:00 15.5 18.4 77.2 1012.6 4.4 ENE 11.5 NE 0.0 397.4
08:05 15.6 18.7 76.2 1012.6 3.1 ENE 14.2 ENE 0.0 392.0
08:10 15.9 19.7 75.9 1012.5 1.7 SE 6.1 ENE 0.0 436.9
08:15 16.2 19.9 75.0 1012.4 1.6 ESE 6.1 SSW 0.0 440.2
08:20 16.5 20.4 73.5 1012.2 2.0 S 6.1 SSW 0.0 430.5
08:25 16.7 20.3 73.6 1012.3 2.4 E 8.8 WNW 0.0 373.5
08:30 16.9 20.4 73.3 1012.3 2.8 ENE 11.5 W 0.0 363.5
08:35 16.8 20.1 73.5 1012.2 2.6 ESE 11.5 ENE 0.0 359.3
08:40 16.7 19.9 74.1 1012.5 3.9 ENE 11.5 ENE 0.0 363.9
08:45 16.9 19.9 73.8 1012.5 2.5 E 8.8 NE 0.0 344.5
08:50 16.8 19.8 73.9 1012.5 2.3 E 11.5 NE 0.0 316.0
08:55 16.9 19.5 73.4 1012.5 3.6 E 8.8 ENE 0.0 244.4
09:00 16.8 19.4 74.2 1012.3 2.1 E 6.1 NNE 0.0 237.1
09:05 16.8 19.2 74.1 1012.5 2.0 E 6.1 ENE 0.0 250.7
09:10 16.8 19.3 74.2 1012.5 1.7 SSE 6.1 SSE 0.0 261.6
09:15 16.9 18.9 73.2 1012.5 1.3 SSW 6.1 SSE 0.0 260.2
09:20 17.1 19.6 73.5 1012.4 1.6 E 6.1 ESE 0.0 432.9
09:25 17.8 21.9 73.2 1012.6 1.0 SSW 6.1 E 0.0 797.3
09:30 18.8 23.7 68.6 1012.5 2.6 S 8.8 SW 0.0 768.9
Màxima 18.8 23.7 94.5 1014.9 4.4 ENE 14.2 ENE 0.0 797.3
Mínima 9.9 8.2 68.6 1012.2
Total 0.0